sensor_id;sensor_type;location;lat;lon;timestamp;P1;durP1;ratioP1;P2;durP2;ratioP2
47219;SDS011;32961;51.936;4.788;2024-01-25T00:00:40;28.30;;;5.00;;
47219;SDS011;32961;51.936;4.788;2024-01-25T00:03:08;30.15;;;5.18;;
47219;SDS011;32961;51.936;4.788;2024-01-25T00:05:36;35.35;;;6.00;;
47219;SDS011;32961;51.936;4.788;2024-01-25T00:08:04;36.40;;;5.50;;
47219;SDS011;32961;51.936;4.788;2024-01-25T00:10:32;45.58;;;7.20;;
47219;SDS011;32961;51.936;4.788;2024-01-25T00:13:01;38.70;;;5.97;;
47219;SDS011;32961;51.936;4.788;2024-01-25T00:15:29;38.42;;;5.57;;
47219;SDS011;32961;51.936;4.788;2024-01-25T00:17:57;39.22;;;6.50;;
47219;SDS011;32961;51.936;4.788;2024-01-25T00:20:25;40.75;;;7.78;;
47219;SDS011;32961;51.936;4.788;2024-01-25T00:22:53;31.42;;;5.25;;
47219;SDS011;32961;51.936;4.788;2024-01-25T00:25:21;46.60;;;6.70;;
47219;SDS011;32961;51.936;4.788;2024-01-25T00:27:49;37.03;;;7.05;;
47219;SDS011;32961;51.936;4.788;2024-01-25T00:30:18;44.90;;;7.15;;
47219;SDS011;32961;51.936;4.788;2024-01-25T00:32:48;39.28;;;7.47;;
47219;SDS011;32961;51.936;4.788;2024-01-25T00:35:17;43.83;;;5.75;;
47219;SDS011;32961;51.936;4.788;2024-01-25T00:37:46;46.05;;;7.70;;
47219;SDS011;32961;51.936;4.788;2024-01-25T00:40:14;39.45;;;7.10;;
47219;SDS011;32961;51.936;4.788;2024-01-25T00:42:44;47.63;;;7.30;;
47219;SDS011;32961;51.936;4.788;2024-01-25T00:45:16;43.15;;;8.18;;
47219;SDS011;32961;51.936;4.788;2024-01-25T00:47:45;35.85;;;7.35;;
47219;SDS011;32961;51.936;4.788;2024-01-25T00:50:14;35.33;;;5.88;;
47219;SDS011;32961;51.936;4.788;2024-01-25T00:52:44;38.33;;;5.40;;
47219;SDS011;32961;51.936;4.788;2024-01-25T00:55:12;33.00;;;5.55;;
47219;SDS011;32961;51.936;4.788;2024-01-25T00:57:42;35.95;;;6.97;;
47219;SDS011;32961;51.936;4.788;2024-01-25T01:00:10;30.73;;;5.68;;
47219;SDS011;32961;51.936;4.788;2024-01-25T01:02:39;30.55;;;6.20;;
47219;SDS011;32961;51.936;4.788;2024-01-25T01:05:11;41.87;;;8.03;;
47219;SDS011;32961;51.936;4.788;2024-01-25T01:07:41;36.15;;;7.15;;
47219;SDS011;32961;51.936;4.788;2024-01-25T01:10:09;41.03;;;7.93;;
47219;SDS011;32961;51.936;4.788;2024-01-25T01:12:37;41.90;;;7.28;;
47219;SDS011;32961;51.936;4.788;2024-01-25T01:15:05;42.33;;;5.85;;
47219;SDS011;32961;51.936;4.788;2024-01-25T01:17:34;42.92;;;7.78;;
47219;SDS011;32961;51.936;4.788;2024-01-25T01:20:02;37.60;;;6.95;;
47219;SDS011;32961;51.936;4.788;2024-01-25T01:22:32;40.75;;;6.97;;
47219;SDS011;32961;51.936;4.788;2024-01-25T01:25:00;35.70;;;5.90;;
47219;SDS011;32961;51.936;4.788;2024-01-25T01:27:28;45.67;;;7.15;;
47219;SDS011;32961;51.936;4.788;2024-01-25T01:29:56;38.47;;;6.40;;
47219;SDS011;32961;51.936;4.788;2024-01-25T01:32:23;48.38;;;6.25;;
47219;SDS011;32961;51.936;4.788;2024-01-25T01:34:51;42.63;;;5.68;;
47219;SDS011;32961;51.936;4.788;2024-01-25T01:37:19;41.78;;;6.78;;
47219;SDS011;32961;51.936;4.788;2024-01-25T01:39:48;47.13;;;7.53;;
47219;SDS011;32961;51.936;4.788;2024-01-25T01:42:17;43.50;;;6.45;;
47219;SDS011;32961;51.936;4.788;2024-01-25T01:44:45;58.67;;;7.45;;
47219;SDS011;32961;51.936;4.788;2024-01-25T01:47:12;36.75;;;6.63;;
47219;SDS011;32961;51.936;4.788;2024-01-25T01:49:40;36.55;;;6.57;;
47219;SDS011;32961;51.936;4.788;2024-01-25T01:52:10;30.27;;;6.38;;
47219;SDS011;32961;51.936;4.788;2024-01-25T01:54:39;34.33;;;5.88;;
47219;SDS011;32961;51.936;4.788;2024-01-25T01:57:09;45.47;;;6.47;;
47219;SDS011;32961;51.936;4.788;2024-01-25T01:59:36;37.67;;;6.50;;
47219;SDS011;32961;51.936;4.788;2024-01-25T02:02:04;42.20;;;6.45;;
47219;SDS011;32961;51.936;4.788;2024-01-25T02:04:33;48.38;;;6.35;;
47219;SDS011;32961;51.936;4.788;2024-01-25T02:07:02;41.83;;;6.10;;
47219;SDS011;32961;51.936;4.788;2024-01-25T02:09:30;44.50;;;6.65;;
47219;SDS011;32961;51.936;4.788;2024-01-25T02:11:58;40.17;;;6.15;;
47219;SDS011;32961;51.936;4.788;2024-01-25T02:14:30;43.70;;;6.90;;
47219;SDS011;32961;51.936;4.788;2024-01-25T02:16:58;39.25;;;6.70;;
47219;SDS011;32961;51.936;4.788;2024-01-25T02:19:27;42.53;;;6.78;;
47219;SDS011;32961;51.936;4.788;2024-01-25T02:21:55;43.63;;;6.72;;
47219;SDS011;32961;51.936;4.788;2024-01-25T02:24:27;47.28;;;8.38;;
47219;SDS011;32961;51.936;4.788;2024-01-25T02:26:55;32.00;;;6.43;;
47219;SDS011;32961;51.936;4.788;2024-01-25T02:29:23;39.05;;;6.82;;
47219;SDS011;32961;51.936;4.788;2024-01-25T02:31:59;40.55;;;6.07;;
47219;SDS011;32961;51.936;4.788;2024-01-25T02:34:27;43.95;;;6.15;;
47219;SDS011;32961;51.936;4.788;2024-01-25T02:36:55;40.70;;;6.63;;
47219;SDS011;32961;51.936;4.788;2024-01-25T02:39:23;31.85;;;5.45;;
47219;SDS011;32961;51.936;4.788;2024-01-25T02:41:53;34.15;;;6.30;;
47219;SDS011;32961;51.936;4.788;2024-01-25T02:44:20;36.42;;;5.57;;
47219;SDS011;32961;51.936;4.788;2024-01-25T02:46:48;65.70;;;8.82;;
47219;SDS011;32961;51.936;4.788;2024-01-25T02:49:16;43.97;;;8.88;;
47219;SDS011;32961;51.936;4.788;2024-01-25T02:51:44;39.55;;;6.70;;
47219;SDS011;32961;51.936;4.788;2024-01-25T02:54:12;36.22;;;6.53;;
47219;SDS011;32961;51.936;4.788;2024-01-25T02:56:40;37.35;;;6.72;;
47219;SDS011;32961;51.936;4.788;2024-01-25T02:59:09;35.75;;;6.30;;
47219;SDS011;32961;51.936;4.788;2024-01-25T03:01:37;34.10;;;6.10;;
47219;SDS011;32961;51.936;4.788;2024-01-25T03:04:07;36.60;;;5.85;;
47219;SDS011;32961;51.936;4.788;2024-01-25T03:06:36;36.08;;;5.70;;
47219;SDS011;32961;51.936;4.788;2024-01-25T03:09:04;40.50;;;6.32;;
47219;SDS011;32961;51.936;4.788;2024-01-25T03:11:32;44.38;;;6.63;;
47219;SDS011;32961;51.936;4.788;2024-01-25T03:13:59;39.03;;;5.88;;
47219;SDS011;32961;51.936;4.788;2024-01-25T03:16:29;37.63;;;6.32;;
47219;SDS011;32961;51.936;4.788;2024-01-25T03:18:56;45.35;;;7.45;;
47219;SDS011;32961;51.936;4.788;2024-01-25T03:21:24;33.75;;;5.53;;
47219;SDS011;32961;51.936;4.788;2024-01-25T03:23:52;38.42;;;5.63;;
47219;SDS011;32961;51.936;4.788;2024-01-25T03:26:20;41.67;;;6.75;;
47219;SDS011;32961;51.936;4.788;2024-01-25T03:28:48;40.60;;;6.50;;
47219;SDS011;32961;51.936;4.788;2024-01-25T03:31:16;48.78;;;7.68;;
47219;SDS011;32961;51.936;4.788;2024-01-25T03:33:45;40.95;;;5.68;;
47219;SDS011;32961;51.936;4.788;2024-01-25T03:36:13;38.28;;;6.15;;
47219;SDS011;32961;51.936;4.788;2024-01-25T03:38:41;43.47;;;9.20;;
47219;SDS011;32961;51.936;4.788;2024-01-25T03:41:10;42.92;;;6.53;;
47219;SDS011;32961;51.936;4.788;2024-01-25T03:43:37;32.42;;;5.22;;
47219;SDS011;32961;51.936;4.788;2024-01-25T03:46:10;32.88;;;5.53;;
47219;SDS011;32961;51.936;4.788;2024-01-25T03:48:38;27.33;;;5.35;;
47219;SDS011;32961;51.936;4.788;2024-01-25T03:51:08;40.20;;;5.85;;
47219;SDS011;32961;51.936;4.788;2024-01-25T03:53:35;37.25;;;5.38;;
47219;SDS011;32961;51.936;4.788;2024-01-25T03:56:04;37.50;;;5.45;;
47219;SDS011;32961;51.936;4.788;2024-01-25T03:58:37;45.70;;;6.15;;
47219;SDS011;32961;51.936;4.788;2024-01-25T04:01:05;31.27;;;5.95;;
47219;SDS011;32961;51.936;4.788;2024-01-25T04:03:33;36.03;;;6.78;;
47219;SDS011;32961;51.936;4.788;2024-01-25T04:06:01;28.42;;;5.72;;
47219;SDS011;32961;51.936;4.788;2024-01-25T04:08:30;42.80;;;6.63;;
47219;SDS011;32961;51.936;4.788;2024-01-25T04:10:58;37.00;;;5.78;;
47219;SDS011;32961;51.936;4.788;2024-01-25T04:13:26;42.67;;;6.25;;
47219;SDS011;32961;51.936;4.788;2024-01-25T04:15:54;42.88;;;5.03;;
47219;SDS011;32961;51.936;4.788;2024-01-25T04:18:22;41.90;;;5.85;;
47219;SDS011;32961;51.936;4.788;2024-01-25T04:20:50;36.22;;;6.25;;
47219;SDS011;32961;51.936;4.788;2024-01-25T04:23:18;47.20;;;6.78;;
47219;SDS011;32961;51.936;4.788;2024-01-25T04:25:47;53.00;;;7.53;;
47219;SDS011;32961;51.936;4.788;2024-01-25T04:28:15;40.90;;;7.28;;
47219;SDS011;32961;51.936;4.788;2024-01-25T04:30:43;37.50;;;5.95;;
47219;SDS011;32961;51.936;4.788;2024-01-25T04:33:11;33.78;;;7.35;;
47219;SDS011;32961;51.936;4.788;2024-01-25T04:35:39;40.58;;;7.70;;
47219;SDS011;32961;51.936;4.788;2024-01-25T04:38:07;38.72;;;8.02;;
47219;SDS011;32961;51.936;4.788;2024-01-25T04:40:34;45.72;;;7.47;;
47219;SDS011;32961;51.936;4.788;2024-01-25T04:43:04;39.65;;;6.93;;
47219;SDS011;32961;51.936;4.788;2024-01-25T04:45:32;36.47;;;6.32;;
47219;SDS011;32961;51.936;4.788;2024-01-25T04:48:00;43.28;;;6.50;;
47219;SDS011;32961;51.936;4.788;2024-01-25T04:50:28;36.53;;;7.22;;
47219;SDS011;32961;51.936;4.788;2024-01-25T04:52:56;62.08;;;11.73;;
47219;SDS011;32961;51.936;4.788;2024-01-25T04:55:25;36.70;;;7.53;;
47219;SDS011;32961;51.936;4.788;2024-01-25T04:57:53;38.97;;;7.20;;
47219;SDS011;32961;51.936;4.788;2024-01-25T05:00:23;57.83;;;7.68;;
47219;SDS011;32961;51.936;4.788;2024-01-25T05:02:51;34.58;;;5.47;;
47219;SDS011;32961;51.936;4.788;2024-01-25T05:05:19;57.72;;;13.98;;
47219;SDS011;32961;51.936;4.788;2024-01-25T05:07:47;58.25;;;11.18;;
47219;SDS011;32961;51.936;4.788;2024-01-25T05:10:15;47.35;;;8.98;;
47219;SDS011;32961;51.936;4.788;2024-01-25T05:12:43;55.72;;;7.88;;
47219;SDS011;32961;51.936;4.788;2024-01-25T05:15:11;38.88;;;6.80;;
47219;SDS011;32961;51.936;4.788;2024-01-25T05:17:40;45.92;;;6.28;;
47219;SDS011;32961;51.936;4.788;2024-01-25T05:20:08;52.45;;;7.05;;
47219;SDS011;32961;51.936;4.788;2024-01-25T05:22:37;46.10;;;6.93;;
47219;SDS011;32961;51.936;4.788;2024-01-25T05:25:07;49.13;;;8.02;;
47219;SDS011;32961;51.936;4.788;2024-01-25T05:27:36;38.53;;;6.63;;
47219;SDS011;32961;51.936;4.788;2024-01-25T05:30:04;41.75;;;7.00;;
47219;SDS011;32961;51.936;4.788;2024-01-25T05:32:33;56.85;;;7.43;;
47219;SDS011;32961;51.936;4.788;2024-01-25T05:35:03;50.00;;;7.07;;
47219;SDS011;32961;51.936;4.788;2024-01-25T05:37:32;49.35;;;6.05;;
47219;SDS011;32961;51.936;4.788;2024-01-25T05:40:00;44.47;;;6.90;;
47219;SDS011;32961;51.936;4.788;2024-01-25T05:42:27;46.28;;;7.80;;
47219;SDS011;32961;51.936;4.788;2024-01-25T05:44:55;38.03;;;7.47;;
47219;SDS011;32961;51.936;4.788;2024-01-25T05:47:23;41.20;;;7.57;;
47219;SDS011;32961;51.936;4.788;2024-01-25T05:49:51;48.13;;;7.47;;
47219;SDS011;32961;51.936;4.788;2024-01-25T05:52:21;48.22;;;8.57;;
47219;SDS011;32961;51.936;4.788;2024-01-25T05:54:50;51.28;;;10.00;;
47219;SDS011;32961;51.936;4.788;2024-01-25T05:57:18;33.88;;;7.90;;
47219;SDS011;32961;51.936;4.788;2024-01-25T05:59:46;55.95;;;9.93;;
47219;SDS011;32961;51.936;4.788;2024-01-25T06:02:14;47.33;;;8.30;;
47219;SDS011;32961;51.936;4.788;2024-01-25T06:04:42;53.15;;;6.32;;
47219;SDS011;32961;51.936;4.788;2024-01-25T06:07:10;47.53;;;6.80;;
47219;SDS011;32961;51.936;4.788;2024-01-25T06:09:40;52.05;;;7.95;;
47219;SDS011;32961;51.936;4.788;2024-01-25T06:12:08;44.13;;;8.25;;
47219;SDS011;32961;51.936;4.788;2024-01-25T06:14:36;82.10;;;21.30;;
47219;SDS011;32961;51.936;4.788;2024-01-25T06:17:04;43.20;;;8.82;;
47219;SDS011;32961;51.936;4.788;2024-01-25T06:19:33;37.03;;;6.28;;
47219;SDS011;32961;51.936;4.788;2024-01-25T06:22:01;49.92;;;7.05;;
47219;SDS011;32961;51.936;4.788;2024-01-25T06:24:29;45.08;;;7.13;;
47219;SDS011;32961;51.936;4.788;2024-01-25T06:26:59;44.88;;;7.78;;
47219;SDS011;32961;51.936;4.788;2024-01-25T06:29:29;51.45;;;9.75;;
47219;SDS011;32961;51.936;4.788;2024-01-25T06:31:57;58.17;;;7.40;;
47219;SDS011;32961;51.936;4.788;2024-01-25T06:34:26;51.50;;;9.75;;
47219;SDS011;32961;51.936;4.788;2024-01-25T06:36:54;46.25;;;10.38;;
47219;SDS011;32961;51.936;4.788;2024-01-25T06:39:22;48.28;;;8.88;;
47219;SDS011;32961;51.936;4.788;2024-01-25T06:41:51;38.60;;;7.82;;
47219;SDS011;32961;51.936;4.788;2024-01-25T06:44:21;42.28;;;6.43;;
47219;SDS011;32961;51.936;4.788;2024-01-25T06:46:49;39.28;;;6.55;;
47219;SDS011;32961;51.936;4.788;2024-01-25T06:49:16;47.83;;;6.38;;
47219;SDS011;32961;51.936;4.788;2024-01-25T06:51:44;44.75;;;6.75;;
47219;SDS011;32961;51.936;4.788;2024-01-25T06:54:12;44.25;;;6.88;;
47219;SDS011;32961;51.936;4.788;2024-01-25T06:56:40;51.58;;;8.63;;
47219;SDS011;32961;51.936;4.788;2024-01-25T06:59:08;65.25;;;18.45;;
47219;SDS011;32961;51.936;4.788;2024-01-25T07:01:38;55.28;;;12.45;;
47219;SDS011;32961;51.936;4.788;2024-01-25T07:04:06;48.22;;;11.02;;
47219;SDS011;32961;51.936;4.788;2024-01-25T07:06:34;48.85;;;8.25;;
47219;SDS011;32961;51.936;4.788;2024-01-25T07:09:02;50.30;;;7.90;;
47219;SDS011;32961;51.936;4.788;2024-01-25T07:11:31;43.13;;;6.90;;
47219;SDS011;32961;51.936;4.788;2024-01-25T07:13:58;50.92;;;9.30;;
47219;SDS011;32961;51.936;4.788;2024-01-25T07:16:26;54.38;;;7.30;;
47219;SDS011;32961;51.936;4.788;2024-01-25T07:18:58;45.30;;;7.65;;
47219;SDS011;32961;51.936;4.788;2024-01-25T07:21:26;64.40;;;8.70;;
47219;SDS011;32961;51.936;4.788;2024-01-25T07:23:53;48.15;;;7.68;;
47219;SDS011;32961;51.936;4.788;2024-01-25T07:26:21;56.97;;;7.75;;
47219;SDS011;32961;51.936;4.788;2024-01-25T07:28:49;39.22;;;7.80;;
47219;SDS011;32961;51.936;4.788;2024-01-25T07:31:20;45.30;;;10.55;;
47219;SDS011;32961;51.936;4.788;2024-01-25T07:33:48;41.97;;;7.80;;
47219;SDS011;32961;51.936;4.788;2024-01-25T07:36:18;43.28;;;6.53;;
47219;SDS011;32961;51.936;4.788;2024-01-25T07:38:47;57.65;;;8.68;;
47219;SDS011;32961;51.936;4.788;2024-01-25T07:41:15;38.05;;;6.93;;
47219;SDS011;32961;51.936;4.788;2024-01-25T07:43:43;67.80;;;9.80;;
47219;SDS011;32961;51.936;4.788;2024-01-25T07:46:11;57.80;;;8.57;;
47219;SDS011;32961;51.936;4.788;2024-01-25T07:48:41;47.78;;;7.20;;
47219;SDS011;32961;51.936;4.788;2024-01-25T07:51:10;54.42;;;8.48;;
47219;SDS011;32961;51.936;4.788;2024-01-25T07:53:41;42.33;;;7.13;;
47219;SDS011;32961;51.936;4.788;2024-01-25T07:56:08;54.33;;;8.13;;
47219;SDS011;32961;51.936;4.788;2024-01-25T07:58:37;41.17;;;7.15;;
47219;SDS011;32961;51.936;4.788;2024-01-25T08:01:05;54.58;;;8.30;;
47219;SDS011;32961;51.936;4.788;2024-01-25T08:03:34;58.17;;;8.32;;
47219;SDS011;32961;51.936;4.788;2024-01-25T08:06:03;45.25;;;6.85;;
47219;SDS011;32961;51.936;4.788;2024-01-25T08:08:31;52.70;;;7.72;;
47219;SDS011;32961;51.936;4.788;2024-01-25T08:11:00;44.92;;;6.43;;
47219;SDS011;32961;51.936;4.788;2024-01-25T08:13:30;54.63;;;7.57;;
47219;SDS011;32961;51.936;4.788;2024-01-25T08:16:01;55.22;;;6.93;;
47219;SDS011;32961;51.936;4.788;2024-01-25T08:18:29;52.25;;;9.00;;
47219;SDS011;32961;51.936;4.788;2024-01-25T08:20:57;45.80;;;10.27;;
47219;SDS011;32961;51.936;4.788;2024-01-25T08:23:27;59.72;;;10.98;;
47219;SDS011;32961;51.936;4.788;2024-01-25T08:25:55;50.13;;;9.63;;
47219;SDS011;32961;51.936;4.788;2024-01-25T08:28:24;49.10;;;8.48;;
47219;SDS011;32961;51.936;4.788;2024-01-25T08:30:52;55.47;;;8.65;;
47219;SDS011;32961;51.936;4.788;2024-01-25T08:33:20;44.25;;;8.02;;
47219;SDS011;32961;51.936;4.788;2024-01-25T08:35:50;60.05;;;9.65;;
47219;SDS011;32961;51.936;4.788;2024-01-25T08:38:19;50.20;;;8.25;;
47219;SDS011;32961;51.936;4.788;2024-01-25T08:40:46;65.85;;;17.95;;
47219;SDS011;32961;51.936;4.788;2024-01-25T08:43:15;59.08;;;12.55;;
47219;SDS011;32961;51.936;4.788;2024-01-25T08:45:45;42.78;;;8.60;;
47219;SDS011;32961;51.936;4.788;2024-01-25T08:48:13;34.15;;;7.20;;
47219;SDS011;32961;51.936;4.788;2024-01-25T08:50:41;57.53;;;8.73;;
47219;SDS011;32961;51.936;4.788;2024-01-25T08:53:09;41.70;;;7.43;;
47219;SDS011;32961;51.936;4.788;2024-01-25T08:55:37;51.40;;;9.27;;
47219;SDS011;32961;51.936;4.788;2024-01-25T08:58:05;52.78;;;9.38;;
47219;SDS011;32961;51.936;4.788;2024-01-25T09:00:33;40.92;;;7.38;;
47219;SDS011;32961;51.936;4.788;2024-01-25T09:03:02;43.03;;;7.40;;
47219;SDS011;32961;51.936;4.788;2024-01-25T09:05:30;51.92;;;8.38;;
47219;SDS011;32961;51.936;4.788;2024-01-25T09:08:01;45.60;;;7.90;;
47219;SDS011;32961;51.936;4.788;2024-01-25T09:10:29;43.40;;;8.80;;
47219;SDS011;32961;51.936;4.788;2024-01-25T09:12:57;56.78;;;8.43;;
47219;SDS011;32961;51.936;4.788;2024-01-25T09:15:25;49.53;;;8.02;;
47219;SDS011;32961;51.936;4.788;2024-01-25T09:17:53;46.30;;;7.95;;
47219;SDS011;32961;51.936;4.788;2024-01-25T09:20:22;42.45;;;8.52;;
47219;SDS011;32961;51.936;4.788;2024-01-25T09:22:50;50.53;;;7.68;;
47219;SDS011;32961;51.936;4.788;2024-01-25T09:25:19;42.97;;;8.48;;
47219;SDS011;32961;51.936;4.788;2024-01-25T09:27:48;42.72;;;7.88;;
47219;SDS011;32961;51.936;4.788;2024-01-25T09:30:16;38.20;;;7.72;;
47219;SDS011;32961;51.936;4.788;2024-01-25T09:32:45;45.83;;;8.18;;
47219;SDS011;32961;51.936;4.788;2024-01-25T09:35:14;42.35;;;9.18;;
47219;SDS011;32961;51.936;4.788;2024-01-25T09:37:43;39.25;;;7.70;;
47219;SDS011;32961;51.936;4.788;2024-01-25T09:40:11;45.25;;;7.78;;
47219;SDS011;32961;51.936;4.788;2024-01-25T09:42:40;50.47;;;7.82;;
47219;SDS011;32961;51.936;4.788;2024-01-25T09:45:08;40.35;;;8.45;;
47219;SDS011;32961;51.936;4.788;2024-01-25T09:47:43;55.42;;;8.65;;
47219;SDS011;32961;51.936;4.788;2024-01-25T09:50:12;55.42;;;10.48;;
47219;SDS011;32961;51.936;4.788;2024-01-25T09:52:41;51.17;;;8.60;;
47219;SDS011;32961;51.936;4.788;2024-01-25T09:55:12;53.03;;;9.43;;
47219;SDS011;32961;51.936;4.788;2024-01-25T09:57:41;41.70;;;7.30;;
47219;SDS011;32961;51.936;4.788;2024-01-25T10:00:13;49.67;;;9.18;;
47219;SDS011;32961;51.936;4.788;2024-01-25T10:02:42;52.95;;;9.15;;
47219;SDS011;32961;51.936;4.788;2024-01-25T10:05:10;50.75;;;8.82;;
47219;SDS011;32961;51.936;4.788;2024-01-25T10:07:40;44.33;;;9.70;;
47219;SDS011;32961;51.936;4.788;2024-01-25T10:10:12;58.33;;;11.38;;
47219;SDS011;32961;51.936;4.788;2024-01-25T10:12:40;56.40;;;9.02;;
47219;SDS011;32961;51.936;4.788;2024-01-25T10:15:10;38.63;;;7.82;;
47219;SDS011;32961;51.936;4.788;2024-01-25T10:17:38;47.20;;;9.20;;
47219;SDS011;32961;51.936;4.788;2024-01-25T10:20:26;52.13;;;8.13;;
47219;SDS011;32961;51.936;4.788;2024-01-25T10:22:58;44.38;;;7.30;;
47219;SDS011;32961;51.936;4.788;2024-01-25T10:25:28;50.30;;;8.57;;
47219;SDS011;32961;51.936;4.788;2024-01-25T10:27:57;41.17;;;8.38;;
47219;SDS011;32961;51.936;4.788;2024-01-25T10:30:25;37.03;;;7.25;;
47219;SDS011;32961;51.936;4.788;2024-01-25T10:32:55;47.10;;;9.77;;
47219;SDS011;32961;51.936;4.788;2024-01-25T10:35:24;66.35;;;11.70;;
47219;SDS011;32961;51.936;4.788;2024-01-25T10:37:53;58.67;;;12.02;;
47219;SDS011;32961;51.936;4.788;2024-01-25T10:40:22;52.00;;;9.52;;
47219;SDS011;32961;51.936;4.788;2024-01-25T10:42:52;42.50;;;9.45;;
47219;SDS011;32961;51.936;4.788;2024-01-25T10:45:20;49.83;;;8.63;;
47219;SDS011;32961;51.936;4.788;2024-01-25T10:47:48;57.83;;;8.35;;
47219;SDS011;32961;51.936;4.788;2024-01-25T10:50:16;53.45;;;12.27;;
47219;SDS011;32961;51.936;4.788;2024-01-25T10:52:45;66.07;;;11.48;;
47219;SDS011;32961;51.936;4.788;2024-01-25T10:55:14;50.22;;;10.32;;
47219;SDS011;32961;51.936;4.788;2024-01-25T10:57:44;51.30;;;8.48;;
47219;SDS011;32961;51.936;4.788;2024-01-25T11:00:15;48.13;;;10.30;;
47219;SDS011;32961;51.936;4.788;2024-01-25T11:02:44;41.15;;;8.77;;
47219;SDS011;32961;51.936;4.788;2024-01-25T11:05:13;50.25;;;10.25;;
47219;SDS011;32961;51.936;4.788;2024-01-25T11:07:46;47.22;;;8.82;;
47219;SDS011;32961;51.936;4.788;2024-01-25T11:10:17;43.38;;;9.05;;
47219;SDS011;32961;51.936;4.788;2024-01-25T11:12:48;58.70;;;11.73;;
47219;SDS011;32961;51.936;4.788;2024-01-25T11:15:19;57.63;;;12.32;;
47219;SDS011;32961;51.936;4.788;2024-01-25T11:17:51;63.20;;;10.55;;
47219;SDS011;32961;51.936;4.788;2024-01-25T11:20:21;45.85;;;11.05;;
47219;SDS011;32961;51.936;4.788;2024-01-25T11:22:57;56.75;;;11.38;;
47219;SDS011;32961;51.936;4.788;2024-01-25T11:25:29;63.30;;;12.65;;
47219;SDS011;32961;51.936;4.788;2024-01-25T11:27:58;59.20;;;10.70;;
47219;SDS011;32961;51.936;4.788;2024-01-25T11:30:29;57.13;;;13.80;;
47219;SDS011;32961;51.936;4.788;2024-01-25T11:32:58;80.90;;;15.50;;
47219;SDS011;32961;51.936;4.788;2024-01-25T11:35:27;61.22;;;12.35;;
47219;SDS011;32961;51.936;4.788;2024-01-25T11:37:55;54.20;;;10.95;;
47219;SDS011;32961;51.936;4.788;2024-01-25T11:40:23;50.45;;;11.27;;
47219;SDS011;32961;51.936;4.788;2024-01-25T11:42:51;52.67;;;12.52;;
47219;SDS011;32961;51.936;4.788;2024-01-25T11:45:20;47.45;;;12.15;;
47219;SDS011;32961;51.936;4.788;2024-01-25T11:47:49;62.30;;;12.90;;
47219;SDS011;32961;51.936;4.788;2024-01-25T11:50:17;64.93;;;12.27;;
47219;SDS011;32961;51.936;4.788;2024-01-25T11:52:45;55.00;;;11.88;;
47219;SDS011;32961;51.936;4.788;2024-01-25T11:55:13;51.80;;;13.45;;
47219;SDS011;32961;51.936;4.788;2024-01-25T11:57:42;47.53;;;11.95;;
47219;SDS011;32961;51.936;4.788;2024-01-25T12:00:12;53.10;;;11.98;;
47219;SDS011;32961;51.936;4.788;2024-01-25T12:02:42;54.25;;;13.82;;
47219;SDS011;32961;51.936;4.788;2024-01-25T12:05:12;50.83;;;11.40;;
47219;SDS011;32961;51.936;4.788;2024-01-25T12:07:40;54.53;;;11.60;;
47219;SDS011;32961;51.936;4.788;2024-01-25T12:10:10;51.13;;;11.38;;
47219;SDS011;32961;51.936;4.788;2024-01-25T12:12:43;58.17;;;12.70;;
47219;SDS011;32961;51.936;4.788;2024-01-25T12:15:11;50.75;;;11.10;;
47219;SDS011;32961;51.936;4.788;2024-01-25T12:17:39;46.92;;;12.23;;
47219;SDS011;32961;51.936;4.788;2024-01-25T12:20:08;57.70;;;10.98;;
47219;SDS011;32961;51.936;4.788;2024-01-25T12:22:40;42.28;;;10.25;;
47219;SDS011;32961;51.936;4.788;2024-01-25T12:25:08;56.17;;;13.02;;
47219;SDS011;32961;51.936;4.788;2024-01-25T12:27:40;48.35;;;11.05;;
47219;SDS011;32961;51.936;4.788;2024-01-25T12:30:08;43.28;;;10.65;;
47219;SDS011;32961;51.936;4.788;2024-01-25T12:32:37;52.15;;;11.18;;
47219;SDS011;32961;51.936;4.788;2024-01-25T12:35:05;46.03;;;9.93;;
47219;SDS011;32961;51.936;4.788;2024-01-25T12:37:36;58.25;;;10.43;;
47219;SDS011;32961;51.936;4.788;2024-01-25T12:40:05;47.55;;;9.85;;
47219;SDS011;32961;51.936;4.788;2024-01-25T12:42:34;48.45;;;10.38;;
47219;SDS011;32961;51.936;4.788;2024-01-25T12:45:03;80.50;;;11.52;;
47219;SDS011;32961;51.936;4.788;2024-01-25T12:47:32;58.63;;;11.43;;
47219;SDS011;32961;51.936;4.788;2024-01-25T12:50:00;38.47;;;8.75;;
47219;SDS011;32961;51.936;4.788;2024-01-25T12:52:29;43.35;;;10.35;;
47219;SDS011;32961;51.936;4.788;2024-01-25T12:54:59;46.50;;;9.35;;
47219;SDS011;32961;51.936;4.788;2024-01-25T12:57:29;39.17;;;8.98;;
47219;SDS011;32961;51.936;4.788;2024-01-25T12:59:57;52.15;;;9.50;;
47219;SDS011;32961;51.936;4.788;2024-01-25T13:02:27;55.30;;;9.65;;
47219;SDS011;32961;51.936;4.788;2024-01-25T13:04:55;49.05;;;10.50;;
47219;SDS011;32961;51.936;4.788;2024-01-25T13:07:23;37.28;;;9.25;;
47219;SDS011;32961;51.936;4.788;2024-01-25T13:09:51;47.17;;;8.98;;
47219;SDS011;32961;51.936;4.788;2024-01-25T13:12:20;48.38;;;8.57;;
47219;SDS011;32961;51.936;4.788;2024-01-25T13:14:48;42.97;;;9.00;;
47219;SDS011;32961;51.936;4.788;2024-01-25T13:17:16;39.42;;;8.48;;
47219;SDS011;32961;51.936;4.788;2024-01-25T13:19:47;51.92;;;9.95;;
47219;SDS011;32961;51.936;4.788;2024-01-25T13:22:16;50.55;;;11.52;;
47219;SDS011;32961;51.936;4.788;2024-01-25T13:24:47;51.25;;;9.25;;
47219;SDS011;32961;51.936;4.788;2024-01-25T13:27:15;54.67;;;9.52;;
47219;SDS011;32961;51.936;4.788;2024-01-25T13:29:44;55.17;;;8.77;;
47219;SDS011;32961;51.936;4.788;2024-01-25T13:32:12;44.83;;;8.70;;
47219;SDS011;32961;51.936;4.788;2024-01-25T13:34:40;43.25;;;8.38;;
47219;SDS011;32961;51.936;4.788;2024-01-25T13:37:08;37.13;;;8.93;;
47219;SDS011;32961;51.936;4.788;2024-01-25T13:39:36;46.35;;;8.57;;
47219;SDS011;32961;51.936;4.788;2024-01-25T13:42:04;50.88;;;11.73;;
47219;SDS011;32961;51.936;4.788;2024-01-25T13:44:32;44.60;;;10.43;;
47219;SDS011;32961;51.936;4.788;2024-01-25T13:47:01;54.20;;;9.95;;
47219;SDS011;32961;51.936;4.788;2024-01-25T13:49:29;60.75;;;9.68;;
47219;SDS011;32961;51.936;4.788;2024-01-25T13:51:59;43.83;;;8.55;;
47219;SDS011;32961;51.936;4.788;2024-01-25T13:54:28;50.80;;;8.77;;
47219;SDS011;32961;51.936;4.788;2024-01-25T13:56:56;50.90;;;9.38;;
47219;SDS011;32961;51.936;4.788;2024-01-25T13:59:30;46.55;;;8.95;;
47219;SDS011;32961;51.936;4.788;2024-01-25T14:01:58;62.30;;;9.90;;
47219;SDS011;32961;51.936;4.788;2024-01-25T14:04:27;56.13;;;9.27;;
47219;SDS011;32961;51.936;4.788;2024-01-25T14:06:55;55.72;;;10.82;;
47219;SDS011;32961;51.936;4.788;2024-01-25T14:09:23;67.68;;;12.77;;
47219;SDS011;32961;51.936;4.788;2024-01-25T14:11:52;58.53;;;9.85;;
47219;SDS011;32961;51.936;4.788;2024-01-25T14:14:20;45.08;;;9.48;;
47219;SDS011;32961;51.936;4.788;2024-01-25T14:16:47;48.45;;;10.95;;
47219;SDS011;32961;51.936;4.788;2024-01-25T14:19:16;48.95;;;9.85;;
47219;SDS011;32961;51.936;4.788;2024-01-25T14:21:48;45.17;;;10.05;;
47219;SDS011;32961;51.936;4.788;2024-01-25T14:24:35;42.90;;;9.85;;
47219;SDS011;32961;51.936;4.788;2024-01-25T14:27:03;47.60;;;10.20;;
47219;SDS011;32961;51.936;4.788;2024-01-25T14:29:32;47.95;;;11.88;;
47219;SDS011;32961;51.936;4.788;2024-01-25T14:32:01;56.17;;;11.25;;
47219;SDS011;32961;51.936;4.788;2024-01-25T14:34:29;50.17;;;10.50;;
47219;SDS011;32961;51.936;4.788;2024-01-25T14:36:58;56.53;;;11.13;;
47219;SDS011;32961;51.936;4.788;2024-01-25T14:39:27;49.00;;;11.15;;